sensor_id;sensor_type;location;lat;lon;timestamp;P1;durP1;ratioP1;P2;durP2;ratioP2
20880;SDS011;10600;53.096;8.802;2022-12-08T00:00:24;17.15;;;8.55;;
20880;SDS011;10600;53.096;8.802;2022-12-08T00:01:26;16.80;;;9.07;;
20880;SDS011;10600;53.096;8.802;2022-12-08T00:02:29;13.60;;;7.20;;
20880;SDS011;10600;53.096;8.802;2022-12-08T00:03:31;11.65;;;7.43;;
20880;SDS011;10600;53.096;8.802;2022-12-08T00:04:32;16.00;;;8.02;;
20880;SDS011;10600;53.096;8.802;2022-12-08T00:05:52;17.13;;;8.38;;
20880;SDS011;10600;53.096;8.802;2022-12-08T00:07:12;16.48;;;8.32;;
20880;SDS011;10600;53.096;8.802;2022-12-08T00:08:31;14.88;;;8.50;;
20880;SDS011;10600;53.096;8.802;2022-12-08T00:09:50;11.35;;;7.15;;
20880;SDS011;10600;53.096;8.802;2022-12-08T00:10:51;16.10;;;8.15;;
20880;SDS011;10600;53.096;8.802;2022-12-08T00:11:55;18.35;;;7.82;;
20880;SDS011;10600;53.096;8.802;2022-12-08T00:12:57;16.77;;;8.52;;
20880;SDS011;10600;53.096;8.802;2022-12-08T00:13:58;14.20;;;8.20;;
20880;SDS011;10600;53.096;8.802;2022-12-08T00:14:59;14.75;;;7.47;;
20880;SDS011;10600;53.096;8.802;2022-12-08T00:16:00;14.38;;;7.15;;
20880;SDS011;10600;53.096;8.802;2022-12-08T00:17:01;15.15;;;7.53;;
20880;SDS011;10600;53.096;8.802;2022-12-08T00:18:02;12.07;;;7.60;;
20880;SDS011;10600;53.096;8.802;2022-12-08T00:19:04;14.30;;;8.25;;
20880;SDS011;10600;53.096;8.802;2022-12-08T00:20:04;12.48;;;7.15;;
20880;SDS011;10600;53.096;8.802;2022-12-08T00:21:06;13.10;;;7.90;;
20880;SDS011;10600;53.096;8.802;2022-12-08T00:22:06;17.50;;;8.68;;
20880;SDS011;10600;53.096;8.802;2022-12-08T00:23:08;12.93;;;7.72;;
20880;SDS011;10600;53.096;8.802;2022-12-08T00:24:09;22.77;;;10.23;;
20880;SDS011;10600;53.096;8.802;2022-12-08T00:25:09;14.63;;;9.10;;
20880;SDS011;10600;53.096;8.802;2022-12-08T00:26:10;13.80;;;6.90;;
20880;SDS011;10600;53.096;8.802;2022-12-08T00:27:14;11.38;;;8.02;;
20880;SDS011;10600;53.096;8.802;2022-12-08T00:28:17;15.52;;;8.00;;
20880;SDS011;10600;53.096;8.802;2022-12-08T00:29:17;17.58;;;8.63;;
20880;SDS011;10600;53.096;8.802;2022-12-08T00:30:18;14.05;;;7.97;;
20880;SDS011;10600;53.096;8.802;2022-12-08T00:31:19;17.23;;;8.52;;
20880;SDS011;10600;53.096;8.802;2022-12-08T00:32:19;15.98;;;8.48;;
20880;SDS011;10600;53.096;8.802;2022-12-08T00:33:20;16.58;;;8.48;;
20880;SDS011;10600;53.096;8.802;2022-12-08T00:34:20;18.40;;;8.52;;
20880;SDS011;10600;53.096;8.802;2022-12-08T00:35:21;14.30;;;8.35;;
20880;SDS011;10600;53.096;8.802;2022-12-08T00:36:22;13.05;;;7.10;;
20880;SDS011;10600;53.096;8.802;2022-12-08T00:37:23;16.45;;;7.78;;
20880;SDS011;10600;53.096;8.802;2022-12-08T00:38:23;15.05;;;8.65;;
20880;SDS011;10600;53.096;8.802;2022-12-08T00:39:24;18.35;;;9.00;;
20880;SDS011;10600;53.096;8.802;2022-12-08T00:40:25;14.25;;;8.80;;
20880;SDS011;10600;53.096;8.802;2022-12-08T00:41:26;16.02;;;8.43;;
20880;SDS011;10600;53.096;8.802;2022-12-08T00:42:46;16.30;;;10.02;;
20880;SDS011;10600;53.096;8.802;2022-12-08T00:43:46;15.93;;;8.73;;
20880;SDS011;10600;53.096;8.802;2022-12-08T00:44:47;14.35;;;9.05;;
20880;SDS011;10600;53.096;8.802;2022-12-08T00:45:48;20.10;;;10.15;;
20880;SDS011;10600;53.096;8.802;2022-12-08T00:46:48;22.70;;;10.48;;
20880;SDS011;10600;53.096;8.802;2022-12-08T00:47:49;15.98;;;10.70;;
20880;SDS011;10600;53.096;8.802;2022-12-08T00:48:49;16.05;;;10.07;;
20880;SDS011;10600;53.096;8.802;2022-12-08T00:49:50;16.38;;;10.25;;
20880;SDS011;10600;53.096;8.802;2022-12-08T00:50:51;19.05;;;11.13;;
20880;SDS011;10600;53.096;8.802;2022-12-08T00:51:51;15.05;;;9.88;;
20880;SDS011;10600;53.096;8.802;2022-12-08T00:52:52;18.77;;;11.30;;
20880;SDS011;10600;53.096;8.802;2022-12-08T00:53:53;21.00;;;11.43;;
20880;SDS011;10600;53.096;8.802;2022-12-08T00:54:53;16.67;;;9.73;;
20880;SDS011;10600;53.096;8.802;2022-12-08T00:55:54;26.05;;;12.95;;
20880;SDS011;10600;53.096;8.802;2022-12-08T00:56:54;16.38;;;10.20;;
20880;SDS011;10600;53.096;8.802;2022-12-08T00:57:55;19.67;;;11.95;;
20880;SDS011;10600;53.096;8.802;2022-12-08T00:58:56;16.13;;;10.95;;
20880;SDS011;10600;53.096;8.802;2022-12-08T00:59:56;23.98;;;9.32;;
20880;SDS011;10600;53.096;8.802;2022-12-08T01:00:57;16.67;;;10.18;;
20880;SDS011;10600;53.096;8.802;2022-12-08T01:01:58;22.40;;;11.27;;
20880;SDS011;10600;53.096;8.802;2022-12-08T01:02:59;17.95;;;11.00;;
20880;SDS011;10600;53.096;8.802;2022-12-08T01:04:06;20.33;;;11.00;;
20880;SDS011;10600;53.096;8.802;2022-12-08T01:05:09;14.43;;;9.07;;
20880;SDS011;10600;53.096;8.802;2022-12-08T01:06:10;16.38;;;10.85;;
20880;SDS011;10600;53.096;8.802;2022-12-08T01:07:11;15.23;;;10.40;;
20880;SDS011;10600;53.096;8.802;2022-12-08T01:08:11;19.90;;;10.90;;
20880;SDS011;10600;53.096;8.802;2022-12-08T01:09:12;16.23;;;10.18;;
20880;SDS011;10600;53.096;8.802;2022-12-08T01:10:14;20.20;;;11.18;;
20880;SDS011;10600;53.096;8.802;2022-12-08T01:11:16;14.82;;;9.95;;
20880;SDS011;10600;53.096;8.802;2022-12-08T01:12:18;16.95;;;9.65;;
20880;SDS011;10600;53.096;8.802;2022-12-08T01:13:18;17.10;;;11.02;;
20880;SDS011;10600;53.096;8.802;2022-12-08T01:14:19;16.40;;;9.43;;
20880;SDS011;10600;53.096;8.802;2022-12-08T01:15:20;13.52;;;10.13;;
20880;SDS011;10600;53.096;8.802;2022-12-08T01:16:23;15.57;;;10.27;;
20880;SDS011;10600;53.096;8.802;2022-12-08T01:17:25;18.58;;;9.80;;
20880;SDS011;10600;53.096;8.802;2022-12-08T01:18:26;15.90;;;9.38;;
20880;SDS011;10600;53.096;8.802;2022-12-08T01:19:27;17.33;;;9.82;;
20880;SDS011;10600;53.096;8.802;2022-12-08T01:20:29;17.52;;;11.38;;
20880;SDS011;10600;53.096;8.802;2022-12-08T01:21:30;16.90;;;10.02;;
20880;SDS011;10600;53.096;8.802;2022-12-08T01:22:32;14.98;;;9.25;;
20880;SDS011;10600;53.096;8.802;2022-12-08T01:23:34;12.50;;;8.90;;
20880;SDS011;10600;53.096;8.802;2022-12-08T01:24:35;15.50;;;9.52;;
20880;SDS011;10600;53.096;8.802;2022-12-08T01:25:36;15.75;;;9.75;;
20880;SDS011;10600;53.096;8.802;2022-12-08T01:26:36;14.63;;;9.82;;
20880;SDS011;10600;53.096;8.802;2022-12-08T01:27:37;14.60;;;10.02;;
20880;SDS011;10600;53.096;8.802;2022-12-08T01:28:38;18.77;;;10.02;;
20880;SDS011;10600;53.096;8.802;2022-12-08T01:29:39;13.05;;;9.38;;
20880;SDS011;10600;53.096;8.802;2022-12-08T01:30:39;18.10;;;9.27;;
20880;SDS011;10600;53.096;8.802;2022-12-08T01:31:40;17.77;;;9.20;;
20880;SDS011;10600;53.096;8.802;2022-12-08T01:32:41;12.52;;;6.75;;
20880;SDS011;10600;53.096;8.802;2022-12-08T01:33:42;14.38;;;8.60;;
20880;SDS011;10600;53.096;8.802;2022-12-08T01:34:43;16.35;;;9.98;;
20880;SDS011;10600;53.096;8.802;2022-12-08T01:35:44;15.40;;;9.18;;
20880;SDS011;10600;53.096;8.802;2022-12-08T01:36:44;13.18;;;8.85;;
20880;SDS011;10600;53.096;8.802;2022-12-08T01:37:46;15.27;;;8.88;;
20880;SDS011;10600;53.096;8.802;2022-12-08T01:38:49;12.25;;;8.38;;
20880;SDS011;10600;53.096;8.802;2022-12-08T01:39:51;16.63;;;8.60;;
20880;SDS011;10600;53.096;8.802;2022-12-08T01:40:51;19.63;;;8.70;;
20880;SDS011;10600;53.096;8.802;2022-12-08T01:41:52;10.77;;;7.22;;
20880;SDS011;10600;53.096;8.802;2022-12-08T01:42:53;15.88;;;8.50;;
20880;SDS011;10600;53.096;8.802;2022-12-08T01:45:02;16.83;;;7.63;;
20880;SDS011;10600;53.096;8.802;2022-12-08T01:46:05;12.30;;;7.85;;
20880;SDS011;10600;53.096;8.802;2022-12-08T01:47:06;9.23;;;6.13;;
20880;SDS011;10600;53.096;8.802;2022-12-08T01:48:08;17.88;;;8.45;;
20880;SDS011;10600;53.096;8.802;2022-12-08T01:49:19;10.38;;;6.90;;
20880;SDS011;10600;53.096;8.802;2022-12-08T01:50:22;9.93;;;6.50;;
20880;SDS011;10600;53.096;8.802;2022-12-08T01:51:23;12.38;;;7.22;;
20880;SDS011;10600;53.096;8.802;2022-12-08T01:52:25;11.20;;;7.07;;
20880;SDS011;10600;53.096;8.802;2022-12-08T01:53:32;10.02;;;7.00;;
20880;SDS011;10600;53.096;8.802;2022-12-08T01:54:34;15.88;;;8.07;;
20880;SDS011;10600;53.096;8.802;2022-12-08T01:56:01;11.75;;;7.18;;
20880;SDS011;10600;53.096;8.802;2022-12-08T01:57:05;12.18;;;7.13;;
20880;SDS011;10600;53.096;8.802;2022-12-08T01:58:11;9.52;;;6.03;;
20880;SDS011;10600;53.096;8.802;2022-12-08T01:59:19;12.45;;;7.28;;
20880;SDS011;10600;53.096;8.802;2022-12-08T02:00:21;10.60;;;7.20;;
20880;SDS011;10600;53.096;8.802;2022-12-08T02:01:22;12.98;;;7.32;;
20880;SDS011;10600;53.096;8.802;2022-12-08T02:02:24;8.25;;;6.82;;
20880;SDS011;10600;53.096;8.802;2022-12-08T02:03:30;11.57;;;6.20;;
20880;SDS011;10600;53.096;8.802;2022-12-08T02:04:36;8.63;;;5.22;;
20880;SDS011;10600;53.096;8.802;2022-12-08T02:05:37;10.75;;;6.78;;
20880;SDS011;10600;53.096;8.802;2022-12-08T02:06:40;11.07;;;6.40;;
20880;SDS011;10600;53.096;8.802;2022-12-08T02:07:42;10.18;;;6.25;;
20880;SDS011;10600;53.096;8.802;2022-12-08T02:08:45;8.93;;;5.03;;
20880;SDS011;10600;53.096;8.802;2022-12-08T02:09:46;12.25;;;6.95;;
20880;SDS011;10600;53.096;8.802;2022-12-08T02:10:47;9.38;;;6.13;;
20880;SDS011;10600;53.096;8.802;2022-12-08T02:11:48;11.45;;;6.72;;
20880;SDS011;10600;53.096;8.802;2022-12-08T02:12:50;13.02;;;6.88;;
20880;SDS011;10600;53.096;8.802;2022-12-08T02:13:53;11.32;;;7.43;;
20880;SDS011;10600;53.096;8.802;2022-12-08T02:14:56;13.23;;;6.72;;
20880;SDS011;10600;53.096;8.802;2022-12-08T02:16:08;15.02;;;7.38;;
20880;SDS011;10600;53.096;8.802;2022-12-08T02:18:55;7.72;;;6.20;;
20880;SDS011;10600;53.096;8.802;2022-12-08T02:20:21;7.18;;;6.35;;
20880;SDS011;10600;53.096;8.802;2022-12-08T02:23:34;13.75;;;7.10;;
20880;SDS011;10600;53.096;8.802;2022-12-08T02:30:54;15.32;;;8.05;;
20880;SDS011;10600;53.096;8.802;2022-12-08T02:36:04;6.35;;;3.45;;
20880;SDS011;10600;53.096;8.802;2022-12-08T02:37:07;9.82;;;5.47;;
20880;SDS011;10600;53.096;8.802;2022-12-08T02:39:33;7.10;;;5.15;;
20880;SDS011;10600;53.096;8.802;2022-12-08T02:40:38;9.27;;;5.43;;
20880;SDS011;10600;53.096;8.802;2022-12-08T02:42:42;13.40;;;7.30;;
20880;SDS011;10600;53.096;8.802;2022-12-08T02:44:46;9.70;;;6.32;;
20880;SDS011;10600;53.096;8.802;2022-12-08T02:45:56;12.32;;;6.18;;
20880;SDS011;10600;53.096;8.802;2022-12-08T02:47:04;14.55;;;7.30;;
20880;SDS011;10600;53.096;8.802;2022-12-08T02:48:06;10.35;;;7.00;;
20880;SDS011;10600;53.096;8.802;2022-12-08T02:49:08;13.85;;;7.70;;
20880;SDS011;10600;53.096;8.802;2022-12-08T02:50:09;14.13;;;8.15;;
20880;SDS011;10600;53.096;8.802;2022-12-08T02:51:11;14.25;;;7.50;;
20880;SDS011;10600;53.096;8.802;2022-12-08T02:53:12;18.40;;;9.20;;
20880;SDS011;10600;53.096;8.802;2022-12-08T02:54:13;11.88;;;7.82;;
20880;SDS011;10600;53.096;8.802;2022-12-08T02:56:50;12.25;;;7.07;;
20880;SDS011;10600;53.096;8.802;2022-12-08T03:00:37;16.92;;;7.93;;
20880;SDS011;10600;53.096;8.802;2022-12-08T03:02:05;13.07;;;8.05;;
20880;SDS011;10600;53.096;8.802;2022-12-08T03:03:22;14.55;;;7.47;;
20880;SDS011;10600;53.096;8.802;2022-12-08T03:07:06;15.63;;;7.55;;
20880;SDS011;10600;53.096;8.802;2022-12-08T03:10:18;17.13;;;7.28;;
20880;SDS011;10600;53.096;8.802;2022-12-08T03:12:52;9.20;;;6.88;;
20880;SDS011;10600;53.096;8.802;2022-12-08T03:14:00;12.30;;;7.65;;
20880;SDS011;10600;53.096;8.802;2022-12-08T03:15:08;11.27;;;6.57;;
20880;SDS011;10600;53.096;8.802;2022-12-08T03:16:14;12.00;;;6.47;;
20880;SDS011;10600;53.096;8.802;2022-12-08T03:17:20;13.82;;;7.90;;
20880;SDS011;10600;53.096;8.802;2022-12-08T03:18:26;19.23;;;8.38;;
20880;SDS011;10600;53.096;8.802;2022-12-08T03:19:31;16.00;;;8.77;;
20880;SDS011;10600;53.096;8.802;2022-12-08T03:20:35;7.13;;;5.60;;
20880;SDS011;10600;53.096;8.802;2022-12-08T03:21:38;15.15;;;8.27;;
20880;SDS011;10600;53.096;8.802;2022-12-08T03:22:42;14.15;;;8.57;;
20880;SDS011;10600;53.096;8.802;2022-12-08T03:23:45;14.55;;;8.70;;
20880;SDS011;10600;53.096;8.802;2022-12-08T03:24:49;9.88;;;7.50;;
20880;SDS011;10600;53.096;8.802;2022-12-08T03:25:53;13.25;;;8.13;;
20880;SDS011;10600;53.096;8.802;2022-12-08T03:27:02;14.65;;;8.13;;
20880;SDS011;10600;53.096;8.802;2022-12-08T03:28:08;17.58;;;6.95;;
20880;SDS011;10600;53.096;8.802;2022-12-08T03:29:09;9.70;;;7.18;;
20880;SDS011;10600;53.096;8.802;2022-12-08T03:30:11;12.88;;;5.90;;
20880;SDS011;10600;53.096;8.802;2022-12-08T03:31:12;13.82;;;7.32;;
20880;SDS011;10600;53.096;8.802;2022-12-08T03:32:17;15.60;;;7.13;;
20880;SDS011;10600;53.096;8.802;2022-12-08T03:33:28;13.35;;;7.60;;
20880;SDS011;10600;53.096;8.802;2022-12-08T03:34:32;8.95;;;6.13;;
20880;SDS011;10600;53.096;8.802;2022-12-08T03:35:34;11.60;;;6.97;;
20880;SDS011;10600;53.096;8.802;2022-12-08T03:36:38;14.52;;;7.45;;
20880;SDS011;10600;53.096;8.802;2022-12-08T03:37:39;11.48;;;7.32;;
20880;SDS011;10600;53.096;8.802;2022-12-08T03:38:41;10.13;;;6.53;;
20880;SDS011;10600;53.096;8.802;2022-12-08T03:39:43;10.35;;;7.15;;
20880;SDS011;10600;53.096;8.802;2022-12-08T03:40:44;15.30;;;7.40;;
20880;SDS011;10600;53.096;8.802;2022-12-08T03:42:08;11.43;;;6.97;;
20880;SDS011;10600;53.096;8.802;2022-12-08T03:43:08;10.20;;;5.70;;
20880;SDS011;10600;53.096;8.802;2022-12-08T03:44:09;12.27;;;4.93;;
20880;SDS011;10600;53.096;8.802;2022-12-08T03:45:10;9.15;;;6.38;;
20880;SDS011;10600;53.096;8.802;2022-12-08T03:46:10;10.27;;;5.43;;
20880;SDS011;10600;53.096;8.802;2022-12-08T03:47:11;11.55;;;7.18;;
20880;SDS011;10600;53.096;8.802;2022-12-08T03:48:12;9.77;;;6.90;;
20880;SDS011;10600;53.096;8.802;2022-12-08T03:49:12;10.82;;;6.28;;
20880;SDS011;10600;53.096;8.802;2022-12-08T03:50:13;9.88;;;6.13;;
20880;SDS011;10600;53.096;8.802;2022-12-08T03:51:14;8.48;;;6.07;;
20880;SDS011;10600;53.096;8.802;2022-12-08T03:52:15;11.77;;;5.45;;
20880;SDS011;10600;53.096;8.802;2022-12-08T03:53:15;8.65;;;5.82;;
20880;SDS011;10600;53.096;8.802;2022-12-08T03:54:16;10.10;;;6.10;;
20880;SDS011;10600;53.096;8.802;2022-12-08T03:55:17;7.00;;;5.15;;
20880;SDS011;10600;53.096;8.802;2022-12-08T03:56:22;10.70;;;6.05;;
20880;SDS011;10600;53.096;8.802;2022-12-08T03:57:25;8.80;;;6.20;;
20880;SDS011;10600;53.096;8.802;2022-12-08T03:58:26;9.05;;;5.10;;
20880;SDS011;10600;53.096;8.802;2022-12-08T03:59:27;9.05;;;5.65;;
20880;SDS011;10600;53.096;8.802;2022-12-08T04:00:27;9.45;;;6.00;;
20880;SDS011;10600;53.096;8.802;2022-12-08T04:01:28;11.20;;;6.32;;
20880;SDS011;10600;53.096;8.802;2022-12-08T04:02:28;8.93;;;5.93;;
20880;SDS011;10600;53.096;8.802;2022-12-08T04:03:29;12.45;;;6.43;;
20880;SDS011;10600;53.096;8.802;2022-12-08T04:04:30;10.70;;;5.78;;
20880;SDS011;10600;53.096;8.802;2022-12-08T04:05:30;10.88;;;5.28;;
20880;SDS011;10600;53.096;8.802;2022-12-08T04:06:31;13.15;;;6.28;;
20880;SDS011;10600;53.096;8.802;2022-12-08T04:07:32;10.52;;;6.25;;
20880;SDS011;10600;53.096;8.802;2022-12-08T04:08:32;9.80;;;5.97;;
20880;SDS011;10600;53.096;8.802;2022-12-08T04:09:33;9.95;;;6.85;;
20880;SDS011;10600;53.096;8.802;2022-12-08T04:10:34;9.65;;;6.43;;
20880;SDS011;10600;53.096;8.802;2022-12-08T04:11:35;12.38;;;7.63;;
20880;SDS011;10600;53.096;8.802;2022-12-08T04:12:35;14.07;;;6.75;;
20880;SDS011;10600;53.096;8.802;2022-12-08T04:13:37;10.75;;;6.28;;
20880;SDS011;10600;53.096;8.802;2022-12-08T04:14:38;8.75;;;6.82;;
20880;SDS011;10600;53.096;8.802;2022-12-08T04:15:43;10.25;;;5.97;;
20880;SDS011;10600;53.096;8.802;2022-12-08T04:16:45;11.70;;;6.32;;
20880;SDS011;10600;53.096;8.802;2022-12-08T04:17:45;12.30;;;6.28;;
20880;SDS011;10600;53.096;8.802;2022-12-08T04:18:46;9.20;;;6.30;;
20880;SDS011;10600;53.096;8.802;2022-12-08T04:19:47;12.02;;;7.22;;
20880;SDS011;10600;53.096;8.802;2022-12-08T04:20:47;15.02;;;7.15;;
20880;SDS011;10600;53.096;8.802;2022-12-08T04:21:48;13.25;;;7.00;;
20880;SDS011;10600;53.096;8.802;2022-12-08T04:22:49;7.95;;;5.85;;
20880;SDS011;10600;53.096;8.802;2022-12-08T04:23:49;11.88;;;7.25;;
20880;SDS011;10600;53.096;8.802;2022-12-08T04:24:50;10.52;;;7.07;;
20880;SDS011;10600;53.096;8.802;2022-12-08T04:25:51;13.23;;;6.05;;
20880;SDS011;10600;53.096;8.802;2022-12-08T04:26:52;13.02;;;6.70;;
20880;SDS011;10600;53.096;8.802;2022-12-08T04:27:53;10.15;;;7.32;;
20880;SDS011;10600;53.096;8.802;2022-12-08T04:28:53;14.65;;;6.70;;
20880;SDS011;10600;53.096;8.802;2022-12-08T04:29:54;7.88;;;6.80;;
20880;SDS011;10600;53.096;8.802;2022-12-08T04:30:55;12.32;;;7.20;;
20880;SDS011;10600;53.096;8.802;2022-12-08T04:31:55;12.10;;;6.82;;
20880;SDS011;10600;53.096;8.802;2022-12-08T04:32:56;12.70;;;7.03;;
20880;SDS011;10600;53.096;8.802;2022-12-08T04:33:56;12.40;;;7.10;;
20880;SDS011;10600;53.096;8.802;2022-12-08T04:34:57;9.85;;;6.65;;
20880;SDS011;10600;53.096;8.802;2022-12-08T04:35:58;9.15;;;6.72;;
20880;SDS011;10600;53.096;8.802;2022-12-08T04:36:58;14.77;;;7.15;;
20880;SDS011;10600;53.096;8.802;2022-12-08T04:37:59;13.88;;;7.03;;
20880;SDS011;10600;53.096;8.802;2022-12-08T04:39:00;11.80;;;6.38;;
20880;SDS011;10600;53.096;8.802;2022-12-08T04:40:00;11.05;;;6.85;;
20880;SDS011;10600;53.096;8.802;2022-12-08T04:41:01;9.70;;;7.78;;
20880;SDS011;10600;53.096;8.802;2022-12-08T04:42:02;10.30;;;6.75;;
20880;SDS011;10600;53.096;8.802;2022-12-08T04:43:03;8.82;;;6.18;;
20880;SDS011;10600;53.096;8.802;2022-12-08T04:44:04;12.52;;;7.85;;
20880;SDS011;10600;53.096;8.802;2022-12-08T04:45:04;9.93;;;5.97;;
20880;SDS011;10600;53.096;8.802;2022-12-08T04:46:06;12.32;;;6.95;;
20880;SDS011;10600;53.096;8.802;2022-12-08T04:47:08;10.52;;;5.82;;
20880;SDS011;10600;53.096;8.802;2022-12-08T04:48:09;10.75;;;7.05;;
20880;SDS011;10600;53.096;8.802;2022-12-08T04:49:12;12.23;;;7.25;;
20880;SDS011;10600;53.096;8.802;2022-12-08T04:50:12;9.48;;;7.22;;
20880;SDS011;10600;53.096;8.802;2022-12-08T04:51:14;14.10;;;7.53;;
20880;SDS011;10600;53.096;8.802;2022-12-08T04:52:16;13.20;;;7.78;;
20880;SDS011;10600;53.096;8.802;2022-12-08T04:53:16;7.72;;;5.25;;
20880;SDS011;10600;53.096;8.802;2022-12-08T04:54:18;5.47;;;4.93;;
20880;SDS011;10600;53.096;8.802;2022-12-08T04:55:19;14.73;;;8.07;;
20880;SDS011;10600;53.096;8.802;2022-12-08T04:56:19;14.95;;;7.78;;
20880;SDS011;10600;53.096;8.802;2022-12-08T04:57:20;10.00;;;6.63;;
20880;SDS011;10600;53.096;8.802;2022-12-08T04:58:21;11.40;;;7.72;;
20880;SDS011;10600;53.096;8.802;2022-12-08T04:59:21;8.45;;;6.80;;
20880;SDS011;10600;53.096;8.802;2022-12-08T05:00:22;10.88;;;7.55;;
20880;SDS011;10600;53.096;8.802;2022-12-08T05:01:23;11.75;;;7.72;;
20880;SDS011;10600;53.096;8.802;2022-12-08T05:02:24;11.90;;;7.78;;
20880;SDS011;10600;53.096;8.802;2022-12-08T05:03:24;9.32;;;7.57;;
20880;SDS011;10600;53.096;8.802;2022-12-08T05:04:25;9.65;;;6.82;;
20880;SDS011;10600;53.096;8.802;2022-12-08T05:05:26;12.02;;;6.85;;
20880;SDS011;10600;53.096;8.802;2022-12-08T05:06:26;8.73;;;6.57;;
20880;SDS011;10600;53.096;8.802;2022-12-08T05:07:27;10.88;;;7.78;;
20880;SDS011;10600;53.096;8.802;2022-12-08T05:08:28;13.75;;;8.05;;
20880;SDS011;10600;53.096;8.802;2022-12-08T05:09:28;9.60;;;7.28;;
20880;SDS011;10600;53.096;8.802;2022-12-08T05:10:29;10.52;;;7.75;;
20880;SDS011;10600;53.096;8.802;2022-12-08T05:11:30;11.02;;;8.32;;
20880;SDS011;10600;53.096;8.802;2022-12-08T05:12:31;11.13;;;8.10;;
20880;SDS011;10600;53.096;8.802;2022-12-08T05:13:32;13.10;;;7.57;;
20880;SDS011;10600;53.096;8.802;2022-12-08T05:14:33;12.30;;;8.10;;
20880;SDS011;10600;53.096;8.802;2022-12-08T05:15:33;11.98;;;7.53;;
20880;SDS011;10600;53.096;8.802;2022-12-08T05:16:34;7.82;;;6.45;;
20880;SDS011;10600;53.096;8.802;2022-12-08T05:17:36;10.63;;;8.02;;
20880;SDS011;10600;53.096;8.802;2022-12-08T05:18:37;9.15;;;6.65;;
20880;SDS011;10600;53.096;8.802;2022-12-08T05:19:39;11.10;;;7.88;;
20880;SDS011;10600;53.096;8.802;2022-12-08T05:20:39;10.27;;;6.70;;
20880;SDS011;10600;53.096;8.802;2022-12-08T05:21:40;10.25;;;7.70;;
20880;SDS011;10600;53.096;8.802;2022-12-08T05:22:41;12.48;;;8.32;;
20880;SDS011;10600;53.096;8.802;2022-12-08T05:23:42;8.35;;;6.55;;
20880;SDS011;10600;53.096;8.802;2022-12-08T05:24:42;12.75;;;8.05;;
20880;SDS011;10600;53.096;8.802;2022-12-08T05:25:43;10.75;;;8.00;;
20880;SDS011;10600;53.096;8.802;2022-12-08T05:26:44;13.90;;;8.52;;
20880;SDS011;10600;53.096;8.802;2022-12-08T05:27:44;11.77;;;8.30;;
20880;SDS011;10600;53.096;8.802;2022-12-08T05:28:45;9.10;;;6.55;;
20880;SDS011;10600;53.096;8.802;2022-12-08T05:29:46;13.85;;;9.05;;
20880;SDS011;10600;53.096;8.802;2022-12-08T05:30:47;7.80;;;5.18;;
20880;SDS011;10600;53.096;8.802;2022-12-08T05:31:48;9.73;;;7.30;;
20880;SDS011;10600;53.096;8.802;2022-12-08T05:32:49;5.55;;;4.30;;
20880;SDS011;10600;53.096;8.802;2022-12-08T05:33:51;10.80;;;8.60;;
20880;SDS011;10600;53.096;8.802;2022-12-08T05:34:52;12.25;;;7.28;;
20880;SDS011;10600;53.096;8.802;2022-12-08T05:35:53;11.45;;;7.88;;
20880;SDS011;10600;53.096;8.802;2022-12-08T05:36:53;12.10;;;9.15;;
20880;SDS011;10600;53.096;8.802;2022-12-08T05:37:54;12.82;;;8.80;;
20880;SDS011;10600;53.096;8.802;2022-12-08T05:38:55;11.95;;;8.32;;
20880;SDS011;10600;53.096;8.802;2022-12-08T05:39:57;10.98;;;8.23;;
20880;SDS011;10600;53.096;8.802;2022-12-08T05:40:57;11.10;;;6.38;;
20880;SDS011;10600;53.096;8.802;2022-12-08T05:41:58;10.20;;;7.97;;
20880;SDS011;10600;53.096;8.802;2022-12-08T05:42:58;11.18;;;8.38;;
20880;SDS011;10600;53.096;8.802;2022-12-08T05:43:59;11.77;;;8.85;;
20880;SDS011;10600;53.096;8.802;2022-12-08T05:45:00;10.80;;;7.90;;
20880;SDS011;10600;53.096;8.802;2022-12-08T05:46:00;11.60;;;8.40;;
20880;SDS011;10600;53.096;8.802;2022-12-08T05:47:01;12.52;;;8.45;;
20880;SDS011;10600;53.096;8.802;2022-12-08T05:48:02;14.82;;;8.95;;
20880;SDS011;10600;53.096;8.802;2022-12-08T05:49:03;12.55;;;9.07;;
20880;SDS011;10600;53.096;8.802;2022-12-08T05:50:04;13.90;;;8.57;;
20880;SDS011;10600;53.096;8.802;2022-12-08T05:51:06;11.18;;;7.43;;
20880;SDS011;10600;53.096;8.802;2022-12-08T05:52:16;13.77;;;9.57;;
20880;SDS011;10600;53.096;8.802;2022-12-08T05:53:18;12.68;;;8.85;;
20880;SDS011;10600;53.096;8.802;2022-12-08T05:54:19;10.88;;;8.55;;
20880;SDS011;10600;53.096;8.802;2022-12-08T05:55:20;13.05;;;9.48;;
20880;SDS011;10600;53.096;8.802;2022-12-08T05:56:21;11.82;;;7.47;;
20880;SDS011;10600;53.096;8.802;2022-12-08T05:57:21;12.93;;;6.65;;
20880;SDS011;10600;53.096;8.802;2022-12-08T05:58:22;9.75;;;8.00;;
20880;SDS011;10600;53.096;8.802;2022-12-08T05:59:23;10.85;;;8.43;;
20880;SDS011;10600;53.096;8.802;2022-12-08T06:00:23;11.10;;;8.07;;
20880;SDS011;10600;53.096;8.802;2022-12-08T06:01:25;14.57;;;8.32;;
20880;SDS011;10600;53.096;8.802;2022-12-08T06:02:28;13.32;;;7.72;;
20880;SDS011;10600;53.096;8.802;2022-12-08T06:03:28;11.15;;;7.57;;
20880;SDS011;10600;53.096;8.802;2022-12-08T06:04:29;14.70;;;8.60;;
20880;SDS011;10600;53.096;8.802;2022-12-08T06:05:33;10.45;;;7.60;;
20880;SDS011;10600;53.096;8.802;2022-12-08T06:06:34;12.40;;;8.88;;
20880;SDS011;10600;53.096;8.802;2022-12-08T06:07:35;12.10;;;8.90;;
20880;SDS011;10600;53.096;8.802;2022-12-08T06:08:36;14.15;;;7.78;;
20880;SDS011;10600;53.096;8.802;2022-12-08T06:09:37;7.90;;;5.32;;
20880;SDS011;10600;53.096;8.802;2022-12-08T06:10:38;12.95;;;9.13;;
20880;SDS011;10600;53.096;8.802;2022-12-08T06:11:40;10.77;;;6.97;;
20880;SDS011;10600;53.096;8.802;2022-12-08T06:12:41;10.68;;;6.95;;
20880;SDS011;10600;53.096;8.802;2022-12-08T06:13:42;11.20;;;7.60;;
20880;SDS011;10600;53.096;8.802;2022-12-08T06:14:42;11.90;;;8.50;;
20880;SDS011;10600;53.096;8.802;2022-12-08T06:15:43;15.00;;;8.25;;
20880;SDS011;10600;53.096;8.802;2022-12-08T06:16:44;9.57;;;8.57;;
20880;SDS011;10600;53.096;8.802;2022-12-08T06:17:44;11.75;;;8.32;;
20880;SDS011;10600;53.096;8.802;2022-12-08T06:18:45;12.32;;;8.27;;
20880;SDS011;10600;53.096;8.802;2022-12-08T06:19:45;13.93;;;8.98;;
20880;SDS011;10600;53.096;8.802;2022-12-08T06:20:46;10.48;;;7.05;;
20880;SDS011;10600;53.096;8.802;2022-12-08T06:21:47;10.15;;;5.88;;
20880;SDS011;10600;53.096;8.802;2022-12-08T06:22:47;11.82;;;7.18;;
20880;SDS011;10600;53.096;8.802;2022-12-08T06:23:49;13.73;;;7.82;;
20880;SDS011;10600;53.096;8.802;2022-12-08T06:24:51;7.90;;;6.38;;
20880;SDS011;10600;53.096;8.802;2022-12-08T06:25:52;5.32;;;3.90;;
20880;SDS011;10600;53.096;8.802;2022-12-08T06:26:53;7.03;;;4.03;;
20880;SDS011;10600;53.096;8.802;2022-12-08T06:27:53;10.75;;;7.70;;
20880;SDS011;10600;53.096;8.802;2022-12-08T06:28:54;5.13;;;4.13;;
20880;SDS011;10600;53.096;8.802;2022-12-08T06:29:54;11.10;;;7.97;;
20880;SDS011;10600;53.096;8.802;2022-12-08T06:30:55;10.95;;;7.90;;
20880;SDS011;10600;53.096;8.802;2022-12-08T06:31:56;15.75;;;7.97;;
20880;SDS011;10600;53.096;8.802;2022-12-08T06:32:57;13.45;;;8.38;;
20880;SDS011;10600;53.096;8.802;2022-12-08T06:33:57;10.10;;;6.90;;
20880;SDS011;10600;53.096;8.802;2022-12-08T06:34:58;10.50;;;7.78;;
20880;SDS011;10600;53.096;8.802;2022-12-08T06:35:59;8.52;;;6.07;;
20880;SDS011;10600;53.096;8.802;2022-12-08T06:36:59;11.23;;;6.88;;
20880;SDS011;10600;53.096;8.802;2022-12-08T06:38:00;10.30;;;6.93;;
20880;SDS011;10600;53.096;8.802;2022-12-08T06:39:01;12.93;;;7.30;;
20880;SDS011;10600;53.096;8.802;2022-12-08T06:40:01;10.93;;;7.03;;